Time;durP1;ratioP1;P1;durP2;ratioP2;P2;SDS_P1;SDS_P2;PMS_P1;PMS_P2;Temp;Humidity;BMP_temperature;BMP_pressure;BME280_temperature;BME280_humidity;BME280_pressure;Samples;Min_cycle;Max_cycle;Signal;HPM_P1;HPM_P2
2021/12/11 00:01:04;;;;;;;39.38;25.77;;;;;;;4.08;100.00;100617.69;10544496;28;20036;-79
2021/12/11 00:06:16;;;;;;;31.38;23.27;;;;;;;4.10;100.00;100609.50;10542715;28;20068;-79
2021/12/11 00:11:26;;;;;;;32.38;22.70;;;;;;;4.06;100.00;100633.09;10543003;28;20056;-79
2021/12/11 00:16:27;;;;;;;34.15;25.52;;;;;;;4.09;100.00;100640.00;10541376;28;20032;-78
2021/12/11 00:21:28;;;;;;;36.03;24.27;;;;;;;4.14;100.00;100654.56;10540751;28;20073;-79
2021/12/11 00:26:39;;;;;;;42.13;26.73;;;;;;;4.18;100.00;100665.81;10557907;28;20452;-79
2021/12/11 00:31:44;;;;;;;38.67;25.52;;;;;;;4.20;100.00;100687.91;10541101;28;20094;-77
2021/12/11 00:37:10;;;;;;;40.55;26.90;;;;;;;4.22;100.00;100693.13;10541000;28;20059;-79
2021/12/11 00:42:12;;;;;;;37.67;25.00;;;;;;;4.22;100.00;100706.53;10539007;28;20044;-79
2021/12/11 00:47:24;;;;;;;45.60;28.27;;;;;;;4.25;100.00;100701.69;10541844;28;20106;-79
2021/12/11 00:52:46;;;;;;;47.00;28.88;;;;;;;4.24;100.00;100718.75;10541516;28;20440;-79
2021/12/11 00:57:47;;;;;;;37.70;25.10;;;;;;;4.24;100.00;100721.44;10538905;28;20040;-78
2021/12/11 01:02:51;;;;;;;39.53;27.05;;;;;;;4.23;100.00;100741.19;10540878;28;20044;-79
2021/12/11 01:07:53;;;;;;;46.28;30.02;;;;;;;4.31;100.00;100764.53;10539709;28;20510;-79
2021/12/11 01:12:59;;;;;;;41.00;26.52;;;;;;;4.31;100.00;100756.50;10541251;28;20039;-79
2021/12/11 01:18:22;;;;;;;47.17;27.40;;;;;;;4.28;100.00;100759.50;10540846;28;20089;-79
2021/12/11 01:28:30;;;;;;;42.38;27.80;;;;;;;4.30;100.00;100773.56;10538906;28;20032;-78
2021/12/11 01:33:30;;;;;;;42.88;27.35;;;;;;;4.12;100.00;100787.06;10540289;28;20487;-79
2021/12/11 01:38:31;;;;;;;41.58;25.27;;;;;;;3.98;100.00;100799.16;10541318;28;20115;-78
2021/12/11 01:43:32;;;;;;;35.75;25.83;;;;;;;3.92;100.00;100810.50;10539635;28;20463;-79
2021/12/11 01:48:39;;;;;;;36.00;25.25;;;;;;;3.96;100.00;100817.25;10539638;28;20028;-79
2021/12/11 01:53:40;;;;;;;;;;;;;;;3.91;100.00;100835.63;10538892;28;20079;-79
2021/12/11 01:59:07;;;;;;;46.13;28.20;;;;;;;3.78;100.00;100838.72;10555087;28;19908;-79
2021/12/11 02:04:08;;;;;;;38.42;26.90;;;;;;;3.65;99.33;100852.50;10540146;28;20032;-79
2021/12/11 02:09:18;;;;;;;44.05;29.60;;;;;;;3.61;99.90;100867.19;10548634;28;20466;-79
2021/12/11 02:14:24;;;;;;;76.80;46.88;;;;;;;3.70;100.00;100868.94;10557506;28;20368;-79
2021/12/11 02:19:32;;;;;;;38.58;26.25;;;;;;;3.61;100.00;100880.59;10549278;28;20059;-79
2021/12/11 02:24:47;;;;;;;44.80;29.27;;;;;;;3.55;99.97;100889.22;10547637;28;20055;-79
2021/12/11 02:29:52;;;;;;;52.22;36.58;;;;;;;3.66;100.00;100907.72;10547724;28;20344;-78
2021/12/11 02:34:56;;;;;;;44.47;29.27;;;;;;;3.79;100.00;100906.50;10545717;28;20118;-79
2021/12/11 02:40:14;;;;;;;44.75;26.13;;;;;;;3.93;100.00;100914.03;10545534;28;20349;-78
2021/12/11 02:45:19;;;;;;;46.42;30.33;;;;;;;3.97;100.00;100910.03;10545092;28;20032;-78
2021/12/11 02:50:24;;;;;;;51.08;31.90;;;;;;;4.02;100.00;100922.94;10546175;28;20447;-79
2021/12/11 02:55:59;;;;;;;50.83;30.88;;;;;;;4.07;100.00;100928.69;10544877;28;20120;-79
2021/12/11 03:01:07;;;;;;;42.75;27.92;;;;;;;4.04;100.00;100926.31;10542772;28;20402;-78
2021/12/11 03:06:18;;;;;;;38.28;26.10;;;;;;;3.97;100.00;100931.47;10545130;28;20020;-78
2021/12/11 03:11:21;;;;;;;41.55;26.38;;;;;;;3.86;100.00;100935.22;10543980;28;20068;-78
2021/12/11 03:16:24;;;;;;;41.05;26.10;;;;;;;3.80;100.00;100938.50;10544502;28;20032;-76
2021/12/11 03:21:24;;;;;;;38.50;26.63;;;;;;;3.76;100.00;100945.16;10543957;28;20039;-78
2021/12/11 03:26:25;;;;;;;37.97;24.85;;;;;;;3.78;100.00;100940.50;10545583;28;20390;-78
2021/12/11 03:31:25;;;;;;;34.45;24.05;;;;;;;3.99;100.00;100944.69;10543354;28;20123;-79
2021/12/11 03:36:26;;;;;;;35.05;25.85;;;;;;;4.15;100.00;100950.22;10545084;28;20051;-78
2021/12/11 03:41:26;;;;;;;43.90;27.08;;;;;;;4.26;100.00;100946.44;10525095;28;20060;-79
2021/12/11 03:46:26;;;;;;;42.92;25.75;;;;;;;4.25;100.00;100953.66;10544238;28;20039;-78
2021/12/11 03:51:30;;;;;;;39.20;24.17;;;;;;;4.23;100.00;100957.47;10545143;28;20096;-78
2021/12/11 03:56:31;;;;;;;38.70;25.05;;;;;;;4.23;100.00;100966.34;10544318;28;20609;-79
2021/12/11 04:01:33;;;;;;;28.42;21.10;;;;;;;4.32;100.00;100962.75;10549523;28;20138;-78
2021/12/11 04:06:33;;;;;;;30.48;20.02;;;;;;;4.31;100.00;100963.75;10569388;28;20043;-79
2021/12/11 04:11:34;;;;;;;30.35;21.30;;;;;;;4.31;100.00;100961.06;10568108;28;20064;-78
2021/12/11 04:16:34;;;;;;;31.15;18.48;;;;;;;4.39;100.00;100974.53;10569080;28;20039;-79
2021/12/11 04:21:35;;;;;;;39.53;19.75;;;;;;;4.45;100.00;100986.47;10535028;28;20024;-79
2021/12/11 04:26:35;;;;;;;30.85;10.75;;;;;;;4.66;100.00;100995.03;10543942;28;20368;-79
2021/12/11 04:31:36;;;;;;;26.27;7.85;;;;;;;4.86;100.00;100994.81;10550739;28;20463;-80
2021/12/11 04:36:40;;;;;;;11.57;3.97;;;;;;;4.84;100.00;101000.31;10548555;28;20040;-80
2021/12/11 04:41:49;;;;;;;11.30;3.58;;;;;;;4.84;100.00;101005.69;10541303;28;20115;-80
2021/12/11 04:46:50;;;;;;;27.00;6.15;;;;;;;4.82;99.99;101009.56;10543066;28;20036;-80
2021/12/11 04:52:06;;;;;;;14.93;4.50;;;;;;;4.92;100.00;101007.59;10539631;28;20482;-80
2021/12/11 04:57:50;;;;;;;10.52;3.95;;;;;;;5.11;100.00;101007.38;10541735;28;20058;-80
2021/12/11 05:08:36;;;;;;;18.10;3.53;;;;;;;5.41;100.00;101031.19;10540297;28;20064;-79
2021/12/11 05:13:25;;;;;;;18.27;3.25;;;;;;;5.52;100.00;101036.25;10539166;28;20387;-79
2021/12/11 05:18:28;;;;;;;2.50;2.08;;;;;;;5.63;100.00;101046.72;10541201;28;20043;-79
2021/12/11 05:23:28;;;;;;;8.52;3.55;;;;;;;5.69;100.00;101040.72;10522257;28;20035;-79
2021/12/11 05:28:29;;;;;;;9.88;3.10;;;;;;;5.69;100.00;101054.16;10538620;28;20463;-79
2021/12/11 05:33:29;;;;;;;6.55;3.25;;;;;;;5.73;100.00;101065.41;10538238;28;20036;-79
2021/12/11 05:38:29;;;;;;;17.83;3.25;;;;;;;5.81;100.00;101066.28;10540244;28;20094;-79
2021/12/11 05:43:30;;;;;;;29.27;5.05;;;;;;;5.93;100.00;101063.31;10542189;28;20115;-79
2021/12/11 05:48:31;;;;;;;7.93;2.92;;;;;;;5.99;100.00;101071.56;10548661;28;20040;-79
2021/12/11 05:53:32;;;;;;;13.30;3.50;;;;;;;6.10;100.00;101075.81;10546186;28;20040;-79
2021/12/11 05:58:46;;;;;;;12.88;3.22;;;;;;;6.20;100.00;101099.88;10529160;28;20244;-79
2021/12/11 06:03:47;;;;;;;10.98;3.72;;;;;;;6.23;100.00;101116.53;10546848;28;20451;-79
2021/12/11 06:08:47;;;;;;;7.75;3.17;;;;;;;6.21;100.00;101129.28;10546375;28;20140;-79
2021/12/11 06:13:47;;;;;;;13.95;4.03;;;;;;;6.20;100.00;101126.78;10546221;28;20064;-79
2021/12/11 06:18:48;;;;;;;14.35;4.50;;;;;;;6.18;100.00;101152.97;10545836;28;20515;-78
2021/12/11 06:23:49;;;;;;;17.35;3.92;;;;;;;6.11;100.00;101160.84;10545414;28;20403;-79
2021/12/11 06:28:50;;;;;;;14.48;2.28;;;;;;;6.05;100.00;101181.16;10546580;28;20036;-78
2021/12/11 06:33:51;;;;;;;8.88;2.63;;;;;;;5.96;100.00;101192.03;10546311;28;20040;-78
2021/12/11 06:38:56;;;;;;;3.15;1.90;;;;;;;5.91;100.00;101203.22;10527496;28;20425;-78
2021/12/11 06:43:57;;;;;;;4.05;2.22;;;;;;;5.96;100.00;101213.53;10546053;28;20036;-78
2021/12/11 06:48:58;;;;;;;6.68;2.15;;;;;;;5.94;100.00;101218.25;10545394;28;20032;-79
2021/12/11 06:54:04;;;;;;;1.83;1.73;;;;;;;5.92;100.00;101225.56;10528253;28;20040;-79
2021/12/11 06:59:04;;;;;;;10.85;1.83;;;;;;;5.91;100.00;101235.50;10544432;28;20035;-79
2021/12/11 07:04:07;;;;;;;1.95;1.70;;;;;;;5.95;100.00;101246.78;10543186;28;20391;-79
2021/12/11 07:09:08;;;;;;;14.07;3.40;;;;;;;6.02;100.00;101259.44;10543690;28;20048;-78
2021/12/11 07:14:09;;;;;;;10.07;3.55;;;;;;;6.08;100.00;101270.56;10526049;28;20486;-79
2021/12/11 07:19:09;;;;;;;13.75;3.22;;;;;;;6.11;100.00;101278.31;10542785;28;20028;-78
2021/12/11 07:24:11;;;;;;;2.42;2.03;;;;;;;6.14;100.00;101278.81;10544946;28;20502;-79
2021/12/11 07:29:14;;;;;;;6.90;2.20;;;;;;;6.16;100.00;101302.84;10543389;28;20467;-71
2021/12/11 07:34:14;;;;;;;2.03;1.88;;;;;;;6.13;100.00;101304.03;10544049;28;20115;-78
2021/12/11 07:39:15;;;;;;;6.28;2.60;;;;;;;6.12;100.00;101318.47;10543740;28;20036;-79
2021/12/11 07:44:16;;;;;;;2.25;2.15;;;;;;;6.13;100.00;101340.84;10543151;28;20104;-80
2021/12/11 07:49:17;;;;;;;10.30;2.88;;;;;;;6.14;100.00;101342.53;10542624;28;20150;-80
2021/12/11 07:54:18;;;;;;;6.50;3.30;;;;;;;6.13;100.00;101360.50;10541625;28;20365;-80
2021/12/11 07:59:18;;;;;;;19.67;4.18;;;;;;;6.06;100.00;101367.50;10540814;28;20039;-81
2021/12/11 08:04:19;;;;;;;6.43;3.40;;;;;;;5.95;100.00;101381.19;10541082;28;20036;-78
2021/12/11 08:09:21;;;;;;;17.08;4.95;;;;;;;5.80;100.00;101389.75;10540862;28;20484;-79
2021/12/11 08:14:21;;;;;;;10.18;4.95;;;;;;;5.67;99.87;101409.97;10541177;28;20536;-79
2021/12/11 08:19:23;;;;;;;9.40;3.70;;;;;;;5.57;99.63;101410.88;10541567;28;20044;-81
2021/12/11 08:24:26;;;;;;;10.23;5.20;;;;;;;5.57;100.00;101429.69;10540995;28;20035;-80
2021/12/11 08:29:27;;;;;;;9.48;5.97;;;;;;;5.76;100.00;101430.53;10540785;28;20065;-81
2021/12/11 08:34:27;;;;;;;13.82;6.93;;;;;;;5.94;100.00;101441.34;10540435;28;20392;-80
2021/12/11 08:39:28;;;;;;;15.50;7.35;;;;;;;6.08;100.00;101451.53;10541087;28;20088;-78
2021/12/11 08:44:34;;;;;;;13.45;7.72;;;;;;;5.97;100.00;101460.69;10542146;28;20107;-79
2021/12/11 08:49:35;;;;;;;16.30;8.60;;;;;;;5.77;100.00;101470.69;10542904;28;20440;-79
2021/12/11 08:54:36;;;;;;;17.48;8.82;;;;;;;5.54;98.70;101480.19;10540740;28;20028;-78
2021/12/11 08:59:38;;;;;;;18.77;8.52;;;;;;;5.38;98.50;101493.44;10539256;28;20475;-78
2021/12/11 09:05:07;;;;;;;21.83;7.93;;;;;;;5.25;98.38;101502.66;10542753;28;20340;-78
2021/12/11 09:10:24;;;;;;;21.00;11.45;;;;;;;5.26;98.85;101503.50;10542798;28;20043;-78
2021/12/11 09:15:24;;;;;;;17.08;11.65;;;;;;;5.40;98.97;101500.34;10542371;28;20095;-79
2021/12/11 09:20:40;;;;;;;17.95;12.32;;;;;;;6.39;100.00;101513.84;10546346;28;20119;-78
2021/12/11 09:26:15;;;;;;;19.20;12.82;;;;;;;6.95;100.00;101519.78;10548524;28;20034;-78
2021/12/11 09:31:23;;;;;;;19.50;11.93;;;;;;;8.23;100.00;101515.22;10514463;28;20051;-78
2021/12/11 09:36:33;;;;;;;20.08;11.15;;;;;;;8.44;100.00;101531.78;10549883;28;20024;-78
2021/12/11 09:41:33;;;;;;;21.40;10.57;;;;;;;8.00;98.86;101534.72;10549129;28;20032;-79
2021/12/11 09:46:40;;;;;;;21.88;11.48;;;;;;;7.79;97.17;101542.44;10548713;28;20504;-79
2021/12/11 09:51:44;;;;;;;15.43;10.23;;;;;;;7.64;97.06;101559.22;10548686;28;20475;-78
2021/12/11 09:56:48;;;;;;;17.70;9.98;;;;;;;7.87;98.02;101556.78;10546027;28;20097;-78
2021/12/11 10:01:53;;;;;;;14.93;8.65;;;;;;;7.80;98.45;101563.00;10547919;28;20115;-78
2021/12/11 10:11:59;;;;;;;13.73;9.52;;;;;;;7.66;99.33;101583.34;10546241;28;20089;-79
2021/12/11 10:17:00;;;;;;;24.90;10.38;;;;;;;7.63;99.40;101587.19;10546576;28;20043;-80
2021/12/11 10:22:06;;;;;;;10.20;8.40;;;;;;;7.55;99.28;101602.47;10546830;28;20039;-79
2021/12/11 10:27:08;;;;;;;20.88;11.65;;;;;;;7.57;99.67;101600.47;10547831;28;20039;-76
2021/12/11 10:32:10;;;;;;;15.80;8.77;;;;;;;7.71;100.00;101602.56;10544086;28;20039;-79
2021/12/11 10:37:16;;;;;;;9.60;8.02;;;;;;;7.82;100.00;101615.75;10545660;28;20458;-77
2021/12/11 10:42:17;;;;;;;31.83;9.32;;;;;;;7.81;100.00;101610.50;10544753;28;20456;-77
2021/12/11 10:47:23;;;;;;;9.15;7.40;;;;;;;7.64;100.00;101618.53;10543960;28;20032;-78
2021/12/11 10:52:26;;;;;;;13.40;5.85;;;;;;;7.66;100.00;101616.53;10544482;28;20032;-76
2021/12/11 10:57:27;;;;;;;21.52;6.90;;;;;;;7.85;100.00;101622.69;10545039;28;20048;-77
2021/12/11 11:02:29;;;;;;;13.55;4.18;;;;;;;7.79;100.00;101628.72;10544777;28;20040;-78
2021/12/11 11:07:29;;;;;;;6.30;3.80;;;;;;;7.76;100.00;101639.84;10544697;28;20060;-76
2021/12/11 11:12:32;;;;;;;11.73;5.13;;;;;;;7.75;100.00;101638.97;10543307;28;20111;-78
2021/12/11 11:17:33;;;;;;;12.70;4.90;;;;;;;7.85;100.00;101636.19;10542597;28;20441;-77
2021/12/11 11:22:34;;;;;;;15.10;3.90;;;;;;;8.50;100.00;101632.84;10544900;28;20039;-78
2021/12/11 11:27:34;;;;;;;11.85;3.60;;;;;;;8.98;100.00;101642.84;10526165;28;20470;-75
2021/12/11 11:32:35;;;;;;;10.15;3.40;;;;;;;9.31;100.00;101650.94;10543395;28;20115;-76
2021/12/11 11:37:36;;;;;;;5.80;4.03;;;;;;;9.28;100.00;101653.97;10541829;28;20034;-77
2021/12/11 11:42:36;;;;;;;15.75;5.55;;;;;;;9.24;100.00;101666.16;10541061;28;20032;-76
2021/12/11 11:47:37;;;;;;;4.60;2.60;;;;;;;9.10;100.00;101672.25;10542393;28;20391;-75
2021/12/11 11:52:38;;;;;;;15.50;4.07;;;;;;;8.98;100.00;101672.56;10542720;28;20040;-75
2021/12/11 11:57:40;;;;;;;15.93;4.25;;;;;;;9.19;100.00;101679.31;10542582;28;20036;-76
2021/12/11 12:02:41;;;;;;;5.82;3.42;;;;;;;9.24;100.00;101685.91;10543057;28;20115;-76
2021/12/11 12:07:41;;;;;;;5.93;2.67;;;;;;;9.25;100.00;101687.63;10540347;28;20143;-76
2021/12/11 12:12:42;;;;;;;15.10;3.33;;;;;;;9.40;100.00;101687.75;10541754;28;20502;-78
2021/12/11 12:17:42;;;;;;;9.75;3.85;;;;;;;9.64;99.70;101700.41;10542166;28;20429;-78
2021/12/11 12:22:43;;;;;;;19.13;5.13;;;;;;;9.92;100.00;101698.16;10541527;28;20127;-79
2021/12/11 12:27:44;;;;;;;21.63;3.78;;;;;;;9.48;100.00;101705.84;10541779;28;20444;-73
2021/12/11 12:32:45;;;;;;;11.25;4.00;;;;;;;9.12;100.00;101708.88;10539225;28;20036;-76
2021/12/11 12:37:46;;;;;;;5.55;2.15;;;;;;;8.59;100.00;101713.69;10540121;28;20138;-76
2021/12/11 12:42:53;;;;;;;7.28;3.90;;;;;;;8.49;99.65;101721.09;10539870;28;20535;-76
2021/12/11 12:47:56;;;;;;;;;;;;;;;8.72;100.00;101732.13;10540518;28;20111;-75
2021/12/11 12:52:57;;;;;;;10.68;4.53;;;;;;;8.45;100.00;101738.59;10540740;28;20366;-74
2021/12/11 12:58:00;;;;;;;10.20;3.60;;;;;;;8.38;100.00;101730.31;10541134;28;20032;-75
2021/12/11 13:03:04;;;;;;;13.93;4.88;;;;;;;7.83;100.00;101733.38;10541274;28;20036;-77
2021/12/11 13:08:08;;;;;;;10.85;3.65;;;;;;;7.57;99.08;101732.53;10539964;28;20059;-76
2021/12/11 13:13:09;;;;;;;14.57;3.75;;;;;;;7.39;99.22;101744.19;10541544;28;20493;-77
2021/12/11 13:18:14;;;;;;;9.15;3.97;;;;;;;7.35;99.76;101740.13;10539893;28;20039;-73
2021/12/11 13:23:15;;;;;;;13.73;4.28;;;;;;;7.37;99.90;101753.41;10540324;28;20044;-75
2021/12/11 13:28:16;;;;;;;16.25;4.75;;;;;;;7.17;98.43;101737.44;10542210;28;20032;-75
2021/12/11 13:33:18;;;;;;;8.88;3.83;;;;;;;7.13;98.94;101746.00;10542246;28;20024;-76
2021/12/11 13:38:19;;;;;;;6.53;4.30;;;;;;;7.10;99.59;101757.91;10540292;28;20063;-75
2021/12/11 13:43:20;;;;;;;6.72;3.50;;;;;;;7.11;99.90;101764.97;10526508;28;20039;-75
2021/12/11 13:48:20;;;;;;;16.27;3.75;;;;;;;7.11;100.00;101762.28;10540098;28;20035;-76
2021/12/11 13:53:23;;;;;;;14.65;4.15;;;;;;;7.16;100.00;101769.91;10538938;28;20032;-75
2021/12/11 13:58:23;;;;;;;13.02;3.90;;;;;;;7.15;100.00;101779.84;10541467;28;20124;-78
2021/12/11 14:03:25;;;;;;;2.50;2.38;;;;;;;7.06;100.00;101785.31;10542429;28;20486;-76
2021/12/11 14:08:26;;;;;;;3.40;2.45;;;;;;;7.08;100.00;101799.44;10547154;28;20516;-75
2021/12/11 14:13:26;;;;;;;3.25;2.95;;;;;;;7.04;100.00;101798.91;10513946;28;20039;-76
2021/12/11 14:18:27;;;;;;;11.95;4.45;;;;;;;6.98;100.00;101788.75;10546335;28;20123;-77
2021/12/11 14:23:31;;;;;;;10.43;4.43;;;;;;;6.81;99.95;101797.66;10547314;28;20039;-78
2021/12/11 14:28:32;;;;;;;12.32;3.53;;;;;;;6.79;100.00;101805.88;10548043;28;20096;-75
2021/12/11 14:33:33;;;;;;;8.55;4.35;;;;;;;6.80;100.00;101817.50;10528497;28;20048;-79
2021/12/11 14:38:34;;;;;;;3.78;3.35;;;;;;;6.76;100.00;101811.56;10545578;28;20032;-78
2021/12/11 14:43:35;;;;;;;9.55;4.40;;;;;;;6.74;99.75;101811.72;10545180;28;20483;-77
2021/12/11 14:48:35;;;;;;;10.05;4.95;;;;;;;6.62;99.45;101815.59;10544475;28;20060;-75
2021/12/11 14:53:37;;;;;;;11.70;4.35;;;;;;;6.64;99.86;101819.00;10545204;28;20035;-79
2021/12/11 14:58:37;;;;;;;5.85;3.33;;;;;;;6.52;99.43;101825.56;10546740;28;20425;-75
2021/12/11 15:03:38;;;;;;;2.88;2.08;;;;;;;6.44;99.62;101823.59;10527559;28;20081;-80
2021/12/11 15:08:38;;;;;;;8.52;4.40;;;;;;;6.43;100.00;101827.31;10544568;28;20092;-79
2021/12/11 15:13:39;;;;;;;6.68;2.85;;;;;;;6.39;99.79;101825.91;10544812;28;20542;-78
2021/12/11 15:18:39;;;;;;;13.50;4.45;;;;;;;6.34;99.94;101835.41;10543707;28;20115;-77
2021/12/11 15:23:40;;;;;;;4.70;3.53;;;;;;;6.39;100.00;101842.06;10545190;28;20480;-78
2021/12/11 15:28:40;;;;;;;14.93;3.92;;;;;;;6.32;100.00;101853.53;10543627;28;20090;-76
2021/12/11 15:33:48;;;;;;;2.90;2.58;;;;;;;6.18;100.00;101850.31;10542742;28;20065;-77
2021/12/11 15:38:50;;;;;;;7.20;3.50;;;;;;;5.98;98.97;101854.88;10491330;28;20510;-78
2021/12/11 15:43:50;;;;;;;10.82;5.00;;;;;;;5.79;98.43;101855.72;10542887;28;20026;-78
2021/12/11 15:48:51;;;;;;;8.00;4.45;;;;;;;5.65;98.73;101863.38;10543540;28;20349;-77
2021/12/11 15:53:51;;;;;;;7.53;3.67;;;;;;;5.65;99.55;101863.38;10548349;28;20079;-78
2021/12/11 15:58:52;;;;;;;9.05;5.45;;;;;;;5.62;99.38;101871.72;10550199;28;20028;-77
2021/12/11 16:03:54;;;;;;;8.23;4.30;;;;;;;5.65;99.96;101869.59;10546660;28;20028;-78
2021/12/11 16:08:55;;;;;;;21.23;4.97;;;;;;;5.70;100.00;101867.31;10542589;28;20048;-78
2021/12/11 16:13:56;;;;;;;14.25;5.13;;;;;;;5.76;100.00;101857.84;10524986;28;20093;-78
2021/12/11 16:18:56;;;;;;;19.42;4.95;;;;;;;5.73;100.00;101876.94;10542228;28;20032;-78
2021/12/11 16:24:00;;;;;;;5.30;4.40;;;;;;;5.67;100.00;101885.56;10542598;28;20070;-77
2021/12/11 16:29:00;;;;;;;15.20;4.25;;;;;;;5.70;100.00;101894.19;10544656;28;20040;-79
2021/12/11 16:34:05;;;;;;;9.02;4.85;;;;;;;5.76;100.00;101901.69;10543189;28;20043;-78
2021/12/11 16:39:05;;;;;;;9.88;5.57;;;;;;;5.73;100.00;101901.97;10541760;28;20043;-78
2021/12/11 16:44:09;;;;;;;6.93;4.45;;;;;;;5.64;100.00;101905.50;10541089;28;20028;-78
2021/12/11 16:49:11;;;;;;;15.60;5.35;;;;;;;5.62;100.00;101898.59;10542315;28;20448;-78
2021/12/11 16:54:11;;;;;;;8.13;4.13;;;;;;;5.48;100.00;101894.47;10542007;28;20032;-78
2021/12/11 16:59:12;;;;;;;13.15;5.68;;;;;;;5.45;100.00;101908.19;10542946;28;20447;-78
2021/12/11 17:04:13;;;;;;;12.15;6.35;;;;;;;5.45;100.00;101906.34;10506127;28;20032;-78
2021/12/11 17:09:15;;;;;;;10.40;5.40;;;;;;;5.39;100.00;101906.91;10541645;28;20087;-76
2021/12/11 17:14:15;;;;;;;15.15;5.35;;;;;;;5.36;100.00;101915.25;10539886;28;20031;-78
2021/12/11 17:19:16;;;;;;;22.90;7.57;;;;;;;5.42;100.00;101928.09;10540000;28;20036;-77
2021/12/11 17:24:17;;;;;;;15.30;7.22;;;;;;;5.46;100.00;101939.44;10540920;28;20034;-76
2021/12/11 17:29:19;;;;;;;9.73;5.03;;;;;;;5.55;100.00;101954.72;10540896;28;20032;-78
2021/12/11 17:34:20;;;;;;;13.73;5.45;;;;;;;5.60;100.00;101961.38;10523352;28;20032;-79
2021/12/11 17:39:21;;;;;;;9.85;7.20;;;;;;;5.56;100.00;101964.50;10542166;28;20031;-78
2021/12/11 17:44:23;;;;;;;8.85;4.55;;;;;;;5.60;100.00;101973.97;10549571;28;20521;-78
2021/12/11 17:49:23;;;;;;;11.20;6.00;;;;;;;5.63;100.00;101973.69;10548519;28;20024;-78
2021/12/11 17:54:24;;;;;;;11.32;4.63;;;;;;;5.60;100.00;101965.91;10549105;28;20040;-79
2021/12/11 17:59:25;;;;;;;14.20;6.63;;;;;;;5.58;100.00;101968.75;10547829;28;20055;-78
2021/12/11 18:04:51;;;;;;;14.52;6.45;;;;;;;5.54;100.00;101974.50;10550588;28;20070;-78
2021/12/11 18:09:51;;;;;;;10.65;5.20;;;;;;;5.58;100.00;101973.25;10550294;28;20466;-78
2021/12/11 18:15:02;;;;;;;25.48;7.50;;;;;;;5.56;100.00;101969.88;10558807;28;20032;-78
2021/12/11 18:20:25;;;;;;;11.07;5.47;;;;;;;5.56;100.00;101965.34;10548695;28;20432;-79
2021/12/11 18:25:26;;;;;;;15.23;6.95;;;;;;;5.51;100.00;101956.81;10546199;28;20081;-78
2021/12/11 18:30:32;;;;;;;14.10;7.40;;;;;;;5.50;100.00;101954.28;10546850;28;20032;-77
2021/12/11 18:35:36;;;;;;;19.50;8.87;;;;;;;5.53;100.00;101948.66;10547230;28;20043;-78
2021/12/11 18:40:53;;;;;;;25.20;10.48;;;;;;;5.52;100.00;101954.97;10547470;28;20028;-79
2021/12/11 18:45:54;;;;;;;;;;;;;;;5.45;100.00;101961.91;10550971;28;20020;-78
2021/12/11 18:50:57;;;;;;;20.00;9.43;;;;;;;5.44;100.00;101968.28;10548020;28;19935;-78
2021/12/11 18:55:59;;;;;;;36.50;13.02;;;;;;;5.47;100.00;101960.78;10546450;28;20093;-78
2021/12/11 19:01:06;;;;;;;31.85;11.73;;;;;;;5.48;100.00;101954.41;10545849;28;20064;-79
2021/12/11 19:06:09;;;;;;;20.05;10.65;;;;;;;5.41;100.00;101958.66;10546286;28;20448;-78
2021/12/11 19:11:22;;;;;;;17.48;9.82;;;;;;;5.36;100.00;101960.91;10544978;28;20067;-79
2021/12/11 19:16:23;;;;;;;16.17;11.05;;;;;;;5.44;100.00;101968.28;10545482;28;20032;-79
2021/12/11 19:21:28;;;;;;;16.50;11.57;;;;;;;5.42;100.00;101979.16;10543629;28;20036;-78
2021/12/11 19:26:29;;;;;;;25.17;10.18;;;;;;;5.44;100.00;101968.28;10544133;28;20036;-79
2021/12/11 19:31:32;;;;;;;25.55;11.98;;;;;;;5.40;100.00;101967.72;10544771;28;20032;-77
2021/12/11 19:36:35;;;;;;;22.60;12.75;;;;;;;5.45;100.00;101970.81;10543136;28;20501;-78
2021/12/11 19:41:36;;;;;;;28.35;11.80;;;;;;;5.43;100.00;101982.72;10544256;28;20039;-78
2021/12/11 19:46:37;;;;;;;16.92;11.00;;;;;;;5.44;100.00;101982.56;10545421;28;20089;-78
2021/12/11 19:51:40;;;;;;;20.35;11.85;;;;;;;5.48;100.00;101985.81;10544055;28;20158;-78
2021/12/11 19:56:43;;;;;;;11.10;9.48;;;;;;;5.39;100.00;101976.72;10544080;28;20433;-79
2021/12/11 20:01:46;;;;;;;27.38;11.90;;;;;;;5.41;100.00;101979.28;10543091;28;20028;-78
2021/12/11 20:06:53;;;;;;;27.95;13.07;;;;;;;5.48;100.00;101991.19;10543654;28;20053;-78
2021/12/11 20:11:57;;;;;;;15.57;6.55;;;;;;;5.47;100.00;101979.59;10560655;28;20085;-78
2021/12/11 20:16:57;;;;;;;30.42;8.85;;;;;;;5.47;100.00;101968.84;10543526;28;20031;-78
2021/12/11 20:22:04;;;;;;;19.30;9.43;;;;;;;5.54;100.00;101955.72;10543073;28;20035;-78
2021/12/11 20:27:04;;;;;;;15.52;10.23;;;;;;;5.47;100.00;101968.00;10546989;28;20110;-78
2021/12/11 20:32:05;;;;;;;19.80;8.98;;;;;;;5.48;100.00;101964.31;10554520;28;20044;-77
2021/12/11 20:37:07;;;;;;;23.77;10.45;;;;;;;5.54;100.00;101975.34;10542181;28;20032;-78
2021/12/11 20:42:10;;;;;;;18.27;9.05;;;;;;;5.55;100.00;101968.16;10545411;28;20027;-79
2021/12/11 20:47:13;;;;;;;25.05;11.98;;;;;;;5.53;100.00;101968.28;10543060;28;20039;-78
2021/12/11 20:52:13;;;;;;;25.15;11.73;;;;;;;5.56;100.00;101978.78;10542441;28;20028;-79
2021/12/11 20:57:14;;;;;;;25.63;11.57;;;;;;;5.53;100.00;101968.28;10541423;28;20038;-78
2021/12/11 21:02:17;;;;;;;23.17;9.55;;;;;;;5.54;100.00;101961.09;10547822;28;20036;-79
2021/12/11 21:07:23;;;;;;;22.65;10.32;;;;;;;5.60;100.00;101963.22;10544244;28;20047;-78
2021/12/11 21:12:29;;;;;;;15.07;8.23;;;;;;;5.57;100.00;101955.44;10556449;28;20115;-78
2021/12/11 21:17:33;;;;;;;17.67;10.68;;;;;;;5.60;100.00;101956.00;10540038;28;20024;-78
2021/12/11 21:22:43;;;;;;;17.42;11.50;;;;;;;5.63;100.00;101962.09;10538715;28;20040;-77
2021/12/11 21:27:46;;;;;;;23.00;12.32;;;;;;;5.60;100.00;101963.22;10538523;28;20160;-77
2021/12/11 21:32:49;;;;;;;16.08;9.30;;;;;;;5.67;100.00;101956.28;10538616;28;20039;-78
2021/12/11 21:37:50;;;;;;;21.08;12.20;;;;;;;5.72;100.00;101964.78;10537193;28;20024;-78
2021/12/11 21:43:03;;;;;;;21.52;9.82;;;;;;;5.75;100.00;101960.97;10538581;28;20491;-78
2021/12/11 21:48:08;;;;;;;23.83;11.23;;;;;;;5.71;100.00;101963.09;10537896;28;20032;-77
2021/12/11 21:53:08;;;;;;;15.00;9.38;;;;;;;5.74;100.00;101973.56;10537859;28;20429;-78
2021/12/11 21:58:10;;;;;;;33.15;13.35;;;;;;;5.78;100.00;101966.94;10537260;28;20121;-78
2021/12/11 22:03:20;;;;;;;19.02;10.35;;;;;;;5.82;100.00;101962.97;10537891;28;20036;-78
2021/12/11 22:08:21;;;;;;;21.55;9.95;;;;;;;5.81;100.00;101971.19;10498984;28;1126032;-79
2021/12/11 22:13:21;;;;;;;34.03;11.95;;;;;;;5.83;100.00;101985.31;10539880;28;20040;-78
2021/12/11 22:18:22;;;;;;;12.02;8.93;;;;;;;5.88;100.00;101985.75;10537609;28;20043;-78
2021/12/11 22:23:24;;;;;;;17.48;9.93;;;;;;;5.86;100.00;101978.81;10538894;28;20039;-79
2021/12/11 22:28:26;;;;;;;21.05;10.07;;;;;;;5.83;100.00;101980.78;10548135;28;20107;-78
2021/12/11 22:33:26;;;;;;;20.33;12.00;;;;;;;5.78;100.00;101971.47;10546486;28;20467;-79
2021/12/11 22:38:30;;;;;;;26.40;11.15;;;;;;;5.73;100.00;101981.75;10551417;28;20081;-79
2021/12/11 22:43:35;;;;;;;18.73;12.75;;;;;;;5.76;100.00;101982.34;10560591;28;20028;-80
2021/12/11 22:48:36;;;;;;;29.98;11.40;;;;;;;5.65;100.00;101966.34;10575342;28;20031;-78
2021/12/11 22:53:42;;;;;;;38.30;11.45;;;;;;;5.71;100.00;101976.53;10553174;28;20032;-80
2021/12/11 22:58:44;;;;;;;;;;;;;;;5.64;100.00;101961.09;10531005;28;20085;-81
2021/12/11 23:03:50;;;;;;;28.33;12.25;;;;;;;5.60;100.00;101965.91;10547235;28;19907;-82
2021/12/11 23:08:51;;;;;;;34.90;12.07;;;;;;;5.66;100.00;101970.72;10543507;28;20048;-81
2021/12/11 23:13:59;;;;;;;34.47;12.73;;;;;;;5.65;100.00;101977.09;10544485;28;20059;-82